sensor_id;sensor_type;location;lat;lon;timestamp;pressure;altitude;pressure_sealevel;temperature;humidity
25869;BME280;13688;53.154;18.136;2023-02-03T00:02:00;101498.33;;;-3.83;100.00
25869;BME280;13688;53.154;18.136;2023-02-03T00:07:22;101507.98;;;-3.85;100.00
25869;BME280;13688;53.154;18.136;2023-02-03T00:12:48;101502.66;;;-3.78;100.00
25869;BME280;13688;53.154;18.136;2023-02-03T00:18:11;101497.40;;;-3.75;100.00
25869;BME280;13688;53.154;18.136;2023-02-03T00:23:33;101490.40;;;-3.79;100.00
25869;BME280;13688;53.154;18.136;2023-02-03T00:28:58;101487.78;;;-3.80;100.00
25869;BME280;13688;53.154;18.136;2023-02-03T00:34:20;101481.72;;;-3.90;100.00
25869;BME280;13688;53.154;18.136;2023-02-03T00:39:44;101482.66;;;-4.00;100.00
25869;BME280;13688;53.154;18.136;2023-02-03T00:45:07;101485.27;;;-3.98;100.00
25869;BME280;13688;53.154;18.136;2023-02-03T00:50:29;101467.75;;;-3.98;100.00
25869;BME280;13688;53.154;18.136;2023-02-03T00:55:52;101458.12;;;-3.97;100.00
25869;BME280;13688;53.154;18.136;2023-02-03T01:01:15;101450.23;;;-3.96;100.00
25869;BME280;13688;53.154;18.136;2023-02-03T01:06:40;101451.09;;;-3.92;100.00
25869;BME280;13688;53.154;18.136;2023-02-03T01:12:03;101455.47;;;-3.91;100.00
25869;BME280;13688;53.154;18.136;2023-02-03T01:17:26;101443.23;;;-3.94;100.00
25869;BME280;13688;53.154;18.136;2023-02-03T01:22:49;101459.00;;;-3.98;100.00
25869;BME280;13688;53.154;18.136;2023-02-03T01:28:12;101438.04;;;-4.03;100.00
25869;BME280;13688;53.154;18.136;2023-02-03T01:33:34;101423.16;;;-4.04;100.00
25869;BME280;13688;53.154;18.136;2023-02-03T01:38:58;101411.77;;;-4.03;100.00
25869;BME280;13688;53.154;18.136;2023-02-03T01:44:44;101399.54;;;-4.09;100.00
25869;BME280;13688;53.154;18.136;2023-02-03T01:50:24;101386.48;;;-4.15;100.00
25869;BME280;13688;53.154;18.136;2023-02-03T01:55:53;101374.13;;;-4.07;100.00
25869;BME280;13688;53.154;18.136;2023-02-03T02:01:15;101388.09;;;-3.95;100.00
25869;BME280;13688;53.154;18.136;2023-02-03T02:06:38;101387.08;;;-3.81;100.00
25869;BME280;13688;53.154;18.136;2023-02-03T02:12:00;101374.79;;;-3.76;100.00
25869;BME280;13688;53.154;18.136;2023-02-03T02:23:28;101342.37;;;-3.78;100.00
25869;BME280;13688;53.154;18.136;2023-02-03T02:34:38;101313.61;;;-3.91;100.00
25869;BME280;13688;53.154;18.136;2023-02-03T02:46:05;101291.67;;;-3.87;100.00
25869;BME280;13688;53.154;18.136;2023-02-03T02:51:28;101290.84;;;-3.91;100.00
25869;BME280;13688;53.154;18.136;2023-02-03T02:56:56;101280.30;;;-3.88;100.00
25869;BME280;13688;53.154;18.136;2023-02-03T03:02:19;101275.03;;;-3.88;100.00
25869;BME280;13688;53.154;18.136;2023-02-03T03:07:44;101270.64;;;-3.84;100.00
25869;BME280;13688;53.154;18.136;2023-02-03T03:13:12;101267.13;;;-3.83;100.00
25869;BME280;13688;53.154;18.136;2023-02-03T03:18:41;101292.52;;;-3.82;100.00
25869;BME280;13688;53.154;18.136;2023-02-03T03:24:07;101265.29;;;-3.77;100.00
25869;BME280;13688;53.154;18.136;2023-02-03T03:29:40;101265.30;;;-3.75;100.00
25869;BME280;13688;53.154;18.136;2023-02-03T03:35:06;101258.30;;;-3.76;100.00
25869;BME280;13688;53.154;18.136;2023-02-03T03:40:35;101255.62;;;-3.71;100.00
25869;BME280;13688;53.154;18.136;2023-02-03T03:45:57;101240.67;;;-3.68;100.00
25869;BME280;13688;53.154;18.136;2023-02-03T03:51:23;101225.77;;;-3.67;100.00
25869;BME280;13688;53.154;18.136;2023-02-03T03:56:59;101221.35;;;-3.62;100.00
25869;BME280;13688;53.154;18.136;2023-02-03T04:02:25;101208.21;;;-3.62;100.00
25869;BME280;13688;53.154;18.136;2023-02-03T04:07:51;101202.13;;;-3.67;100.00
25869;BME280;13688;53.154;18.136;2023-02-03T04:13:15;101199.55;;;-3.70;100.00
25869;BME280;13688;53.154;18.136;2023-02-03T04:18:37;101181.82;;;-3.53;100.00
25869;BME280;13688;53.154;18.136;2023-02-03T04:24:00;101169.58;;;-3.57;100.00
25869;BME280;13688;53.154;18.136;2023-02-03T04:29:22;101162.59;;;-3.58;100.00
25869;BME280;13688;53.154;18.136;2023-02-03T04:34:45;101152.91;;;-3.53;100.00
25869;BME280;13688;53.154;18.136;2023-02-03T04:40:07;101146.66;;;-3.44;100.00
25869;BME280;13688;53.154;18.136;2023-02-03T04:45:30;101139.69;;;-3.49;100.00
25869;BME280;13688;53.154;18.136;2023-02-03T04:50:53;101130.95;;;-3.51;100.00
25869;BME280;13688;53.154;18.136;2023-02-03T04:56:16;101130.70;;;-3.32;100.00
25869;BME280;13688;53.154;18.136;2023-02-03T05:01:38;101123.48;;;-3.17;100.00
25869;BME280;13688;53.154;18.136;2023-02-03T05:07:01;101110.16;;;-3.06;100.00
25869;BME280;13688;53.154;18.136;2023-02-03T05:12:24;101108.36;;;-3.04;100.00
25869;BME280;13688;53.154;18.136;2023-02-03T05:17:46;101090.75;;;-3.00;100.00
25869;BME280;13688;53.154;18.136;2023-02-03T05:23:10;101088.07;;;-2.96;100.00
25869;BME280;13688;53.154;18.136;2023-02-03T05:28:33;101070.39;;;-2.87;100.00
25869;BME280;13688;53.154;18.136;2023-02-03T05:33:55;101048.38;;;-2.83;100.00
25869;BME280;13688;53.154;18.136;2023-02-03T05:39:18;101035.23;;;-2.83;100.00
25869;BME280;13688;53.154;18.136;2023-02-03T05:44:40;101033.40;;;-2.78;100.00
25869;BME280;13688;53.154;18.136;2023-02-03T05:50:02;101014.98;;;-2.80;100.00
25869;BME280;13688;53.154;18.136;2023-02-03T05:55:29;100999.26;;;-2.83;100.00
25869;BME280;13688;53.154;18.136;2023-02-03T06:00:51;100983.47;;;-2.83;100.00
25869;BME280;13688;53.154;18.136;2023-02-03T06:06:15;100969.52;;;-2.86;100.00
25869;BME280;13688;53.154;18.136;2023-02-03T06:11:47;100958.81;;;-2.77;100.00
25869;BME280;13688;53.154;18.136;2023-02-03T06:17:10;100956.33;;;-2.85;100.00
25869;BME280;13688;53.154;18.136;2023-02-03T06:22:32;100936.94;;;-2.81;100.00
25869;BME280;13688;53.154;18.136;2023-02-03T06:27:55;100937.77;;;-2.77;100.00
25869;BME280;13688;53.154;18.136;2023-02-03T06:33:18;100926.23;;;-2.72;100.00
25869;BME280;13688;53.154;18.136;2023-02-03T06:38:40;100915.48;;;-2.60;100.00
25869;BME280;13688;53.154;18.136;2023-02-03T06:44:02;100900.40;;;-2.53;100.00
25869;BME280;13688;53.154;18.136;2023-02-03T06:49:25;100888.89;;;-2.47;100.00
25869;BME280;13688;53.154;18.136;2023-02-03T06:54:47;100867.66;;;-2.40;100.00
25869;BME280;13688;53.154;18.136;2023-02-03T07:00:10;100856.93;;;-2.32;100.00
25869;BME280;13688;53.154;18.136;2023-02-03T07:05:33;100844.45;;;-2.24;100.00
25869;BME280;13688;53.154;18.136;2023-02-03T07:11:00;100836.51;;;-2.21;100.00
25869;BME280;13688;53.154;18.136;2023-02-03T07:16:23;100830.16;;;-2.14;100.00
25869;BME280;13688;53.154;18.136;2023-02-03T07:21:46;100811.45;;;-2.02;100.00
25869;BME280;13688;53.154;18.136;2023-02-03T07:27:08;100790.14;;;-1.92;100.00
25869;BME280;13688;53.154;18.136;2023-02-03T07:32:31;100784.70;;;-1.86;100.00
25869;BME280;13688;53.154;18.136;2023-02-03T07:37:54;100763.42;;;-1.79;100.00
25869;BME280;13688;53.154;18.136;2023-02-03T07:43:16;100758.77;;;-1.69;100.00
25869;BME280;13688;53.154;18.136;2023-02-03T07:48:39;100750.66;;;-1.61;100.00
25869;BME280;13688;53.154;18.136;2023-02-03T07:54:01;100740.78;;;-1.55;100.00
25869;BME280;13688;53.154;18.136;2023-02-03T07:59:23;100712.63;;;-1.53;100.00
25869;BME280;13688;53.154;18.136;2023-02-03T08:04:46;100704.67;;;-1.51;100.00
25869;BME280;13688;53.154;18.136;2023-02-03T08:10:09;100683.48;;;-1.48;100.00
25869;BME280;13688;53.154;18.136;2023-02-03T08:15:33;100677.30;;;-1.47;100.00
25869;BME280;13688;53.154;18.136;2023-02-03T08:20:57;100655.27;;;-1.45;100.00
25869;BME280;13688;53.154;18.136;2023-02-03T08:26:19;100633.28;;;-1.45;100.00
25869;BME280;13688;53.154;18.136;2023-02-03T08:31:42;100617.34;;;-1.40;100.00
25869;BME280;13688;53.154;18.136;2023-02-03T08:37:05;100599.56;;;-1.34;100.00
25869;BME280;13688;53.154;18.136;2023-02-03T08:42:28;100577.39;;;-1.28;100.00
25869;BME280;13688;53.154;18.136;2023-02-03T08:47:50;100565.92;;;-1.27;100.00
25869;BME280;13688;53.154;18.136;2023-02-03T08:53:12;100546.41;;;-1.22;100.00
25869;BME280;13688;53.154;18.136;2023-02-03T08:58:35;100535.00;;;-1.22;100.00
25869;BME280;13688;53.154;18.136;2023-02-03T09:03:58;100517.09;;;-1.12;100.00
25869;BME280;13688;53.154;18.136;2023-02-03T09:09:22;100493.10;;;-1.05;100.00
25869;BME280;13688;53.154;18.136;2023-02-03T09:14:45;100476.23;;;-1.01;100.00
25869;BME280;13688;53.154;18.136;2023-02-03T09:20:08;100448.08;;;-1.00;100.00
25869;BME280;13688;53.154;18.136;2023-02-03T09:25:33;100434.94;;;-1.02;100.00
25869;BME280;13688;53.154;18.136;2023-02-03T09:31:00;100419.84;;;-0.98;100.00
25869;BME280;13688;53.154;18.136;2023-02-03T09:36:27;100403.22;;;-1.00;100.00
25869;BME280;13688;53.154;18.136;2023-02-03T09:42:17;100380.38;;;-1.01;100.00
25869;BME280;13688;53.154;18.136;2023-02-03T09:47:51;100371.48;;;-0.99;100.00
25869;BME280;13688;53.154;18.136;2023-02-03T09:53:44;100350.05;;;-0.90;100.00
25869;BME280;13688;53.154;18.136;2023-02-03T09:59:18;100325.77;;;-0.99;100.00
25869;BME280;13688;53.154;18.136;2023-02-03T10:22:17;100235.33;;;-1.03;100.00
25869;BME280;13688;53.154;18.136;2023-02-03T10:27:42;100212.56;;;-1.05;100.00
25869;BME280;13688;53.154;18.136;2023-02-03T10:33:10;100186.21;;;-1.07;100.00
25869;BME280;13688;53.154;18.136;2023-02-03T10:44:30;100147.95;;;-0.95;100.00
25869;BME280;13688;53.154;18.136;2023-02-03T10:49:56;100126.58;;;-0.89;100.00
25869;BME280;13688;53.154;18.136;2023-02-03T10:55:29;100095.97;;;-0.93;100.00
25869;BME280;13688;53.154;18.136;2023-02-03T11:00:56;100086.03;;;-0.87;100.00
25869;BME280;13688;53.154;18.136;2023-02-03T11:06:22;100058.65;;;-0.84;100.00
25869;BME280;13688;53.154;18.136;2023-02-03T11:11:46;100036.69;;;-0.84;100.00
25869;BME280;13688;53.154;18.136;2023-02-03T11:17:25;100011.14;;;-0.84;100.00
25869;BME280;13688;53.154;18.136;2023-02-03T11:22:49;99976.77;;;-0.82;100.00
25869;BME280;13688;53.154;18.136;2023-02-03T11:28:13;99975.91;;;-0.83;100.00
25869;BME280;13688;53.154;18.136;2023-02-03T11:33:36;99931.12;;;-0.84;100.00
25869;BME280;13688;53.154;18.136;2023-02-03T11:44:44;99902.27;;;-0.89;100.00
25869;BME280;13688;53.154;18.136;2023-02-03T11:50:17;99890.08;;;-0.92;100.00
25869;BME280;13688;53.154;18.136;2023-02-03T11:55:53;99867.19;;;-0.91;100.00
25869;BME280;13688;53.154;18.136;2023-02-03T12:01:40;99849.79;;;-0.95;100.00
25869;BME280;13688;53.154;18.136;2023-02-03T12:24:56;99783.83;;;-0.95;100.00
25869;BME280;13688;53.154;18.136;2023-02-03T12:35:50;99763.57;;;-0.95;100.00
25869;BME280;13688;53.154;18.136;2023-02-03T12:41:17;99758.06;;;-0.90;100.00
25869;BME280;13688;53.154;18.136;2023-02-03T12:46:54;99747.52;;;-0.90;100.00
25869;BME280;13688;53.154;18.136;2023-02-03T12:52:25;99727.98;;;-0.86;100.00
25869;BME280;13688;53.154;18.136;2023-02-03T12:57:51;99718.33;;;-0.87;100.00
25869;BME280;13688;53.154;18.136;2023-02-03T13:03:44;99713.01;;;-0.85;100.00
25869;BME280;13688;53.154;18.136;2023-02-03T13:08:59;99710.37;;;-0.85;100.00
25869;BME280;13688;53.154;18.136;2023-02-03T13:14:28;99710.41;;;-0.87;100.00
25869;BME280;13688;53.154;18.136;2023-02-03T13:19:59;99691.82;;;-0.84;100.00
25869;BME280;13688;53.154;18.136;2023-02-03T13:26:19;99672.34;;;-0.81;100.00
25869;BME280;13688;53.154;18.136;2023-02-03T13:31:27;99672.34;;;-0.81;100.00
25869;BME280;13688;53.154;18.136;2023-02-03T13:37:29;99668.69;;;-0.79;100.00
25869;BME280;13688;53.154;18.136;2023-02-03T13:43:12;99650.94;;;-0.75;100.00
25869;BME280;13688;53.154;18.136;2023-02-03T13:48:42;99648.91;;;-0.70;100.00
25869;BME280;13688;53.154;18.136;2023-02-03T13:54:07;99638.28;;;-0.69;100.00
25869;BME280;13688;53.154;18.136;2023-02-03T13:59:42;99624.23;;;-0.69;100.00
25869;BME280;13688;53.154;18.136;2023-02-03T14:05:06;99628.81;;;-0.73;100.00
25869;BME280;13688;53.154;18.136;2023-02-03T14:11:34;99648.42;;;-0.78;100.00
25869;BME280;13688;53.154;18.136;2023-02-03T14:16:34;99638.36;;;-0.70;100.00
25869;BME280;13688;53.154;18.136;2023-02-03T14:22:15;99634.86;;;-0.71;100.00
25869;BME280;13688;53.154;18.136;2023-02-03T14:27:37;99625.93;;;-0.68;100.00
25869;BME280;13688;53.154;18.136;2023-02-03T14:33:01;99637.34;;;-0.68;100.00
25869;BME280;13688;53.154;18.136;2023-02-03T14:38:29;99639.94;;;-0.66;100.00
25869;BME280;13688;53.154;18.136;2023-02-03T14:44:26;99646.07;;;-0.66;100.00
25869;BME280;13688;53.154;18.136;2023-02-03T14:56:13;99648.78;;;-0.67;100.00
25869;BME280;13688;53.154;18.136;2023-02-03T15:02:19;99657.84;;;-0.73;100.00
25869;BME280;13688;53.154;18.136;2023-02-03T15:07:52;99667.31;;;-0.69;100.00
25869;BME280;13688;53.154;18.136;2023-02-03T15:13:34;99676.16;;;-0.70;100.00
25869;BME280;13688;53.154;18.136;2023-02-03T15:19:13;99676.16;;;-0.70;100.00
25869;BME280;13688;53.154;18.136;2023-02-03T15:24:34;99681.31;;;-0.67;100.00
25869;BME280;13688;53.154;18.136;2023-02-03T15:30:13;99685.66;;;-0.66;100.00
25869;BME280;13688;53.154;18.136;2023-02-03T15:35:40;99681.08;;;-0.62;100.00
25869;BME280;13688;53.154;18.136;2023-02-03T15:41:06;99701.27;;;-0.61;100.00
25869;BME280;13688;53.154;18.136;2023-02-03T15:46:48;99697.98;;;-0.47;100.00
25869;BME280;13688;53.154;18.136;2023-02-03T15:52:18;99703.25;;;-0.47;100.00
25869;BME280;13688;53.154;18.136;2023-02-03T15:57:41;99700.45;;;-0.44;100.00
25869;BME280;13688;53.154;18.136;2023-02-03T16:03:17;99715.36;;;-0.43;100.00
25869;BME280;13688;53.154;18.136;2023-02-03T16:08:47;99713.38;;;-0.38;100.00
25869;BME280;13688;53.154;18.136;2023-02-03T16:14:29;99732.63;;;-0.36;100.00
25869;BME280;13688;53.154;18.136;2023-02-03T16:19:51;99725.32;;;-0.31;100.00
25869;BME280;13688;53.154;18.136;2023-02-03T16:25:27;99738.45;;;-0.30;100.00
25869;BME280;13688;53.154;18.136;2023-02-03T16:31:16;99749.86;;;-0.29;100.00
25869;BME280;13688;53.154;18.136;2023-02-03T16:36:54;99759.45;;;-0.26;100.00
25869;BME280;13688;53.154;18.136;2023-02-03T16:42:35;99764.49;;;-0.22;100.00
25869;BME280;13688;53.154;18.136;2023-02-03T16:48:11;99771.97;;;-0.13;100.00
25869;BME280;13688;53.154;18.136;2023-02-03T16:53:51;99776.03;;;-0.06;100.00
25869;BME280;13688;53.154;18.136;2023-02-03T16:59:15;99783.19;;;-0.08;100.00
25869;BME280;13688;53.154;18.136;2023-02-03T17:04:39;99779.53;;;-0.05;100.00
25869;BME280;13688;53.154;18.136;2023-02-03T17:10:02;99785.50;;;-0.02;100.00
25869;BME280;13688;53.154;18.136;2023-02-03T17:15:25;99805.66;;;0.01;100.00
25869;BME280;13688;53.154;18.136;2023-02-03T17:20:49;99798.05;;;0.12;100.00
25869;BME280;13688;53.154;18.136;2023-02-03T17:26:15;99801.55;;;0.13;100.00
25869;BME280;13688;53.154;18.136;2023-02-03T17:31:38;99826.97;;;0.15;100.00
25869;BME280;13688;53.154;18.136;2023-02-03T17:37:01;99838.19;;;0.20;100.00
25869;BME280;13688;53.154;18.136;2023-02-03T17:42:24;99842.38;;;0.24;100.00
25869;BME280;13688;53.154;18.136;2023-02-03T17:48:04;99846.25;;;0.17;100.00
25869;BME280;13688;53.154;18.136;2023-02-03T17:53:38;99862.83;;;0.21;100.00
25869;BME280;13688;53.154;18.136;2023-02-03T17:59:04;99878.86;;;0.35;100.00
25869;BME280;13688;53.154;18.136;2023-02-03T18:04:27;99875.36;;;0.35;100.00
25869;BME280;13688;53.154;18.136;2023-02-03T18:09:53;99881.22;;;0.41;100.00
25869;BME280;13688;53.154;18.136;2023-02-03T18:15:17;99873.28;;;0.41;100.00
25869;BME280;13688;53.154;18.136;2023-02-03T18:20:39;99874.05;;;0.43;100.00
25869;BME280;13688;53.154;18.136;2023-02-03T18:26:02;99882.06;;;0.42;100.00
25869;BME280;13688;53.154;18.136;2023-02-03T18:31:26;99874.20;;;0.57;100.00
25869;BME280;13688;53.154;18.136;2023-02-03T18:36:49;99883.70;;;0.44;100.00
25869;BME280;13688;53.154;18.136;2023-02-03T18:42:12;99895.09;;;0.27;100.00
25869;BME280;13688;53.154;18.136;2023-02-03T18:47:35;99903.91;;;0.09;100.00
25869;BME280;13688;53.154;18.136;2023-02-03T18:52:58;99890.79;;;-0.11;100.00
25869;BME280;13688;53.154;18.136;2023-02-03T18:58:20;99908.66;;;-0.16;100.00
25869;BME280;13688;53.154;18.136;2023-02-03T19:03:43;99907.14;;;-0.22;100.00
25869;BME280;13688;53.154;18.136;2023-02-03T19:09:08;99935.50;;;-0.25;100.00
25869;BME280;13688;53.154;18.136;2023-02-03T19:14:32;99933.88;;;-0.09;100.00
25869;BME280;13688;53.154;18.136;2023-02-03T19:19:55;99934.92;;;-0.13;100.00
25869;BME280;13688;53.154;18.136;2023-02-03T19:25:17;99944.91;;;-0.20;100.00
25869;BME280;13688;53.154;18.136;2023-02-03T19:30:40;99960.20;;;-0.26;100.00
25869;BME280;13688;53.154;18.136;2023-02-03T19:36:04;99953.63;;;-0.37;100.00
25869;BME280;13688;53.154;18.136;2023-02-03T19:41:28;99965.31;;;-0.42;100.00
25869;BME280;13688;53.154;18.136;2023-02-03T19:46:52;99984.88;;;-0.46;100.00
25869;BME280;13688;53.154;18.136;2023-02-03T19:52:15;99997.41;;;-0.51;100.00
25869;BME280;13688;53.154;18.136;2023-02-03T19:57:39;100004.61;;;-0.55;100.00
25869;BME280;13688;53.154;18.136;2023-02-03T20:03:02;100008.44;;;-0.62;100.00
25869;BME280;13688;53.154;18.136;2023-02-03T20:08:27;100016.97;;;-0.76;100.00
25869;BME280;13688;53.154;18.136;2023-02-03T20:13:51;100028.70;;;-0.83;100.00
25869;BME280;13688;53.154;18.136;2023-02-03T20:19:16;100049.95;;;-0.86;100.00
25869;BME280;13688;53.154;18.136;2023-02-03T20:24:38;100049.09;;;-0.87;100.00
25869;BME280;13688;53.154;18.136;2023-02-03T20:30:01;100057.97;;;-0.89;100.00
25869;BME280;13688;53.154;18.136;2023-02-03T20:35:25;100059.17;;;-0.96;100.00
25869;BME280;13688;53.154;18.136;2023-02-03T20:40:48;100057.48;;;-0.99;100.00
25869;BME280;13688;53.154;18.136;2023-02-03T20:46:13;100071.61;;;-1.00;100.00
25869;BME280;13688;53.154;18.136;2023-02-03T20:51:38;100073.52;;;-1.03;100.00
25869;BME280;13688;53.154;18.136;2023-02-03T20:57:00;100100.83;;;-1.04;100.00
25869;BME280;13688;53.154;18.136;2023-02-03T21:02:29;100106.27;;;-1.09;100.00
25869;BME280;13688;53.154;18.136;2023-02-03T21:08:13;100126.65;;;-1.12;100.00
25869;BME280;13688;53.154;18.136;2023-02-03T21:13:37;100146.04;;;-1.13;100.00
25869;BME280;13688;53.154;18.136;2023-02-03T21:19:01;100162.95;;;-1.19;100.00
25869;BME280;13688;53.154;18.136;2023-02-03T21:24:32;100166.70;;;-1.25;100.00
25869;BME280;13688;53.154;18.136;2023-02-03T21:29:57;100188.08;;;-1.32;100.00
25869;BME280;13688;53.154;18.136;2023-02-03T21:35:41;100196.27;;;-1.40;100.00
25869;BME280;13688;53.154;18.136;2023-02-03T21:41:10;100213.94;;;-1.42;100.00
25869;BME280;13688;53.154;18.136;2023-02-03T21:46:33;100236.90;;;-1.46;100.00
25869;BME280;13688;53.154;18.136;2023-02-03T21:51:55;100273.12;;;-1.51;100.00
25869;BME280;13688;53.154;18.136;2023-02-03T21:57:19;100311.87;;;-1.53;100.00
25869;BME280;13688;53.154;18.136;2023-02-03T22:02:57;100346.20;;;-1.54;100.00
25869;BME280;13688;53.154;18.136;2023-02-03T22:08:23;100375.20;;;-1.54;100.00
25869;BME280;13688;53.154;18.136;2023-02-03T22:13:48;100384.05;;;-1.57;100.00
25869;BME280;13688;53.154;18.136;2023-02-03T22:19:11;100405.31;;;-1.61;100.00
25869;BME280;13688;53.154;18.136;2023-02-03T22:24:34;100425.73;;;-1.68;100.00
25869;BME280;13688;53.154;18.136;2023-02-03T22:29:57;100451.28;;;-1.70;100.00
25869;BME280;13688;53.154;18.136;2023-02-03T22:35:19;100466.34;;;-1.74;100.00
25869;BME280;13688;53.154;18.136;2023-02-03T22:40:41;100480.41;;;-1.75;100.00
25869;BME280;13688;53.154;18.136;2023-02-03T22:46:04;100526.22;;;-1.79;100.00
25869;BME280;13688;53.154;18.136;2023-02-03T22:51:26;100546.45;;;-1.79;100.00
25869;BME280;13688;53.154;18.136;2023-02-03T22:56:48;100572.91;;;-1.82;100.00
25869;BME280;13688;53.154;18.136;2023-02-03T23:02:11;100575.55;;;-1.84;100.00
25869;BME280;13688;53.154;18.136;2023-02-03T23:07:33;100622.11;;;-1.83;100.00
25869;BME280;13688;53.154;18.136;2023-02-03T23:12:56;100622.98;;;-1.84;100.00
25869;BME280;13688;53.154;18.136;2023-02-03T23:18:18;100673.97;;;-1.85;100.00
25869;BME280;13688;53.154;18.136;2023-02-03T23:23:42;100702.14;;;-1.87;100.00
25869;BME280;13688;53.154;18.136;2023-02-03T23:29:04;100732.08;;;-1.89;100.00
25869;BME280;13688;53.154;18.136;2023-02-03T23:34:27;100753.20;;;-1.91;100.00
25869;BME280;13688;53.154;18.136;2023-02-03T23:40:09;100767.30;;;-1.92;100.00
25869;BME280;13688;53.154;18.136;2023-02-03T23:45:31;100791.97;;;-1.96;100.00
25869;BME280;13688;53.154;18.136;2023-02-03T23:50:54;100832.63;;;-2.06;100.00
25869;BME280;13688;53.154;18.136;2023-02-03T23:56:16;100852.92;;;-2.10;100.00
